Time;durP1;ratioP1;P1;durP2;ratioP2;P2;SDS_P1;SDS_P2;PMS_P1;PMS_P2;Temp;Humidity;BMP_temperature;BMP_pressure;BME280_temperature;BME280_humidity;BME280_pressure;Samples;Min_cycle;Max_cycle;Signal;HPM_P1;HPM_P2
2023/10/31 00:01:49;;;;;;;;;;;;;;;25.28;40.42;99715.69;4215086;28;19924;-67
2023/10/31 00:03:51;;;;;;;;;;;;;;;25.28;40.06;99718.38;4197136;28;19924;-66
2023/10/31 00:05:52;;;;;;;;;;;;;;;25.28;40.03;99720.25;4215015;28;19942;-67
2023/10/31 00:07:54;;;;;;;;;;;;;;;25.26;40.10;99719.56;4214721;28;20373;-67
2023/10/31 00:09:55;;;;;;;;;;;;;;;25.24;40.58;99711.69;4215067;28;19928;-67
2023/10/31 00:11:57;;;;;;;;;;;;;;;25.25;40.31;99707.13;4214905;28;20523;-67
2023/10/31 00:13:59;;;;;;;;;;;;;;;25.24;40.32;99711.69;4214775;28;19940;-67
2023/10/31 00:16:00;;;;;;;;;;;;;;;25.25;40.07;99715.19;4214731;28;19928;-67
2023/10/31 00:18:02;;;;;;;;;;;;;;;25.25;40.16;99709.81;4214820;28;19960;-66
2023/10/31 00:20:05;;;;;;;;;;;;;;;25.27;40.29;99710.47;4214604;28;20007;-66
2023/10/31 00:22:06;;;;;;;;;;;;;;;25.27;40.10;99708.63;4214443;28;19950;-66
2023/10/31 00:24:08;;;;;;;;;;;;;;;25.29;39.97;99713.84;4214771;28;19951;-67
2023/10/31 00:26:10;;;;;;;;;;;;;;;25.28;40.24;99715.69;4215130;28;20015;-67
2023/10/31 00:28:11;;;;;;;;;;;;;;;25.27;40.13;99714.00;4196925;28;19971;-67
2023/10/31 00:30:13;;;;;;;;;;;;;;;25.27;39.94;99715.88;4196458;28;19952;-67
2023/10/31 00:32:14;;;;;;;;;;;;;;;25.26;40.04;99711.50;4214607;28;19974;-67
2023/10/31 00:34:16;;;;;;;;;;;;;;;25.25;40.37;99712.50;4214647;28;20092;-67
2023/10/31 00:36:17;;;;;;;;;;;;;;;25.23;40.25;99709.16;4214417;28;20309;-65
2023/10/31 00:38:19;;;;;;;;;;;;;;;25.24;40.05;99713.50;4214555;28;19924;-67
2023/10/31 00:40:20;;;;;;;;;;;;;;;25.25;40.14;99717.88;4214454;28;19978;-67
2023/10/31 00:42:22;;;;;;;;;;;;;;;25.25;40.25;99721.44;4214596;28;19931;-66
2023/10/31 00:44:23;;;;;;;;;;;;;;;25.26;40.15;99723.06;4214319;28;19924;-66
2023/10/31 00:46:25;;;;;;;;;;;;;;;25.24;40.25;99719.75;4214532;28;19931;-66
2023/10/31 00:48:27;;;;;;;;;;;;;;;25.26;40.05;99715.00;4214343;28;20480;-67
2023/10/31 00:50:28;;;;;;;;;;;;;;;25.26;40.23;99716.88;4214324;28;20019;-67
2023/10/31 00:52:30;;;;;;;;;;;;;;;25.26;39.94;99716.88;4214159;28;19924;-67
2023/10/31 00:54:31;;;;;;;;;;;;;;;25.25;39.92;99720.56;4214337;28;19931;-66
2023/10/31 00:56:34;;;;;;;;;;;;;;;25.24;40.16;99718.88;4214434;28;20027;-66
2023/10/31 00:58:35;;;;;;;;;;;;;;;25.22;39.89;99719.06;4214058;28;20033;-66
2023/10/31 01:00:37;;;;;;;;;;;;;;;25.22;40.36;99729.00;4214089;28;19925;-66
2023/10/31 01:02:39;;;;;;;;;;;;;;;25.22;39.96;99724.44;4196066;28;20011;-68
2023/10/31 01:04:40;;;;;;;;;;;;;;;25.23;40.26;99728.00;4214164;28;20006;-67
2023/10/31 01:06:43;;;;;;;;;;;;;;;25.25;40.20;99728.66;4213576;28;19924;-66
2023/10/31 01:08:45;;;;;;;;;;;;;;;25.27;39.79;99729.31;4214067;28;20305;-67
2023/10/31 01:10:46;;;;;;;;;;;;;;;25.26;39.80;99724.94;4214027;28;19931;-67
2023/10/31 01:12:48;;;;;;;;;;;;;;;25.26;40.03;99731.16;4214068;28;19932;-66
2023/10/31 01:14:49;;;;;;;;;;;;;;;25.24;39.92;99730.50;4214262;28;19924;-67
2023/10/31 01:16:51;;;;;;;;;;;;;;;25.23;40.00;99731.53;4214059;28;20018;-67
2023/10/31 01:18:53;;;;;;;;;;;;;;;25.23;39.96;99733.38;4213981;28;19924;-67
2023/10/31 01:20:54;;;;;;;;;;;;;;;25.21;39.99;99728.16;4213452;28;20325;-66
2023/10/31 01:22:56;;;;;;;;;;;;;;;25.22;40.27;99735.22;4213698;28;19931;-68
2023/10/31 01:24:57;;;;;;;;;;;;;;;25.22;40.16;99743.28;4213860;28;19924;-66
2023/10/31 01:26:59;;;;;;;;;;;;;;;25.22;39.79;99737.09;4213998;28;19935;-67
2023/10/31 01:29:00;;;;;;;;;;;;;;;25.21;40.07;99738.91;4213957;28;19932;-66
2023/10/31 01:31:02;;;;;;;;;;;;;;;25.24;39.99;99735.03;4213608;28;19930;-66
2023/10/31 01:33:04;;;;;;;;;;;;;;;25.24;39.87;99737.72;4213318;28;19924;-67
2023/10/31 01:35:05;;;;;;;;;;;;;;;25.25;39.67;99734.88;4213521;28;19977;-66
2023/10/31 01:37:07;;;;;;;;;;;;;;;25.24;40.13;99735.03;4213783;28;20385;-66
2023/10/31 01:39:09;;;;;;;;;;;;;;;25.23;40.06;99736.06;4213723;28;19928;-66
2023/10/31 01:41:11;;;;;;;;;;;;;;;25.21;39.96;99733.53;4213744;28;20022;-66
2023/10/31 01:43:12;;;;;;;;;;;;;;;25.20;39.84;99739.94;4213621;28;19972;-66
2023/10/31 01:45:14;;;;;;;;;;;;;;;25.19;39.96;99743.66;4213470;28;20023;-66
2023/10/31 01:47:15;;;;;;;;;;;;;;;25.18;40.04;99750.03;4213741;28;20335;-66
2023/10/31 01:49:17;;;;;;;;;;;;;;;25.18;39.82;99750.88;4213123;28;20010;-67
2023/10/31 01:51:19;;;;;;;;;;;;;;;25.19;39.78;99749.88;4213627;28;19935;-67
2023/10/31 01:53:20;;;;;;;;;;;;;;;25.19;39.88;99752.56;4213637;28;20304;-66
2023/10/31 01:55:22;;;;;;;;;;;;;;;25.19;40.04;99752.56;4213668;28;19931;-66
2023/10/31 01:57:24;;;;;;;;;;;;;;;25.04;39.92;99725.53;4213628;28;19955;-66
2023/10/31 01:59:26;;;;;;;;;;;;;;;25.20;39.97;99761.44;4213678;28;19938;-66
2023/10/31 02:01:28;;;;;;;;;;;;;;;25.19;39.83;99760.63;4195873;28;19925;-66
2023/10/31 02:03:30;;;;;;;;;;;;;;;25.18;40.03;99766.19;4213212;28;19924;-66
2023/10/31 02:05:32;;;;;;;;;;;;;;;25.18;39.70;99775.09;4213532;28;19971;-67
2023/10/31 02:07:33;;;;;;;;;;;;;;;25.15;39.99;99769.22;4213467;28;20351;-66
2023/10/31 02:09:35;;;;;;;;;;;;;;;25.14;39.92;99776.47;4213485;28;19925;-67
2023/10/31 02:11:37;;;;;;;;;;;;;;;25.15;40.05;99780.84;4213657;28;19924;-66
2023/10/31 02:13:38;;;;;;;;;;;;;;;25.16;39.79;99781.66;4213372;28;19924;-66
2023/10/31 02:15:40;;;;;;;;;;;;;;;25.16;39.87;99778.97;4213432;28;19924;-66
2023/10/31 02:17:42;;;;;;;;;;;;;;;25.17;39.80;99778.78;4213515;28;19997;-67
2023/10/31 02:19:43;;;;;;;;;;;;;;;25.16;39.72;99773.59;4213147;28;19931;-67
2023/10/31 02:21:45;;;;;;;;;;;;;;;25.15;39.82;99770.06;4213468;28;19931;-66
2023/10/31 02:24:06;;;;;;;;;;;;;;;25.16;39.67;99779.78;4213518;28;19930;-66
2023/10/31 02:26:08;;;;;;;;;;;;;;;25.15;39.75;99778.16;4213432;28;19966;-66
2023/10/31 02:28:10;;;;;;;;;;;;;;;25.15;39.93;99782.66;4213401;28;19928;-67
2023/10/31 02:30:11;;;;;;;;;;;;;;;25.14;39.50;99779.16;4213513;28;19931;-66
2023/10/31 02:32:13;;;;;;;;;;;;;;;25.14;39.57;99783.69;4213180;28;20027;-66
2023/10/31 02:34:15;;;;;;;;;;;;;;;25.13;39.66;99788.22;4212794;28;19977;-66
2023/10/31 02:36:16;;;;;;;;;;;;;;;25.13;39.79;99790.91;4213492;28;19931;-67
2023/10/31 02:38:18;;;;;;;;;;;;;;;25.15;39.43;99785.34;4213298;28;19924;-66
2023/10/31 02:40:20;;;;;;;;;;;;;;;25.15;39.42;99794.28;4213105;28;19935;-66
2023/10/31 02:42:21;;;;;;;;;;;;;;;25.15;39.82;99790.75;4213285;28;19924;-66
2023/10/31 02:44:23;;;;;;;;;;;;;;;25.15;39.61;99794.28;4216164;28;19924;-66
2023/10/31 02:46:24;;;;;;;;;;;;;;;25.15;39.64;99785.34;4216375;28;19970;-66
2023/10/31 02:48:26;;;;;;;;;;;;;;;25.14;39.64;99787.22;4197835;28;20311;-65
2023/10/31 02:50:28;;;;;;;;;;;;;;;25.13;39.75;99790.06;4199634;28;20007;-67
2023/10/31 02:52:29;;;;;;;;;;;;;;;25.04;39.47;99767.72;4199359;28;19935;-66
2023/10/31 02:54:31;;;;;;;;;;;;;;;25.12;39.58;99783.84;4198395;28;19931;-66
2023/10/31 02:56:32;;;;;;;;;;;;;;;25.12;39.67;99778.47;4199492;28;19931;-66
2023/10/31 02:58:34;;;;;;;;;;;;;;;25.13;39.82;99780.16;4199408;28;20007;-66
2023/10/31 03:00:35;;;;;;;;;;;;;;;25.13;39.64;99773.91;4199150;28;19924;-66
2023/10/31 03:02:37;;;;;;;;;;;;;;;25.14;39.69;99772.91;4198957;28;19932;-66
2023/10/31 03:04:38;;;;;;;;;;;;;;;25.15;39.63;99782.66;4198095;28;19924;-66
2023/10/31 03:06:40;;;;;;;;;;;;;;;25.15;39.48;99778.16;4199232;28;20286;-66
2023/10/31 03:08:42;;;;;;;;;;;;;;;25.15;39.45;99777.28;4198010;28;19959;-65
2023/10/31 03:10:43;;;;;;;;;;;;;;;25.15;39.45;99778.16;4199287;28;19964;-67
2023/10/31 03:12:45;;;;;;;;;;;;;;;25.14;39.75;99784.53;4199728;28;19925;-66
2023/10/31 03:14:46;;;;;;;;;;;;;;;25.14;39.67;99778.28;4199301;28;20341;-66
2023/10/31 03:16:48;;;;;;;;;;;;;;;25.13;39.69;99790.91;4198745;28;20421;-67
2023/10/31 03:18:50;;;;;;;;;;;;;;;25.15;39.53;99793.44;4199115;28;20096;-66
2023/10/31 03:20:51;;;;;;;;;;;;;;;25.16;39.39;99795.13;4199124;28;20433;-66
2023/10/31 03:22:53;;;;;;;;;;;;;;;25.17;39.61;99796.78;4198868;28;19962;-67
2023/10/31 03:24:54;;;;;;;;;;;;;;;25.15;39.41;99796.13;4198796;28;19938;-66
2023/10/31 03:26:56;;;;;;;;;;;;;;;25.17;39.71;99800.31;4197776;28;20358;-66
2023/10/31 03:28:58;;;;;;;;;;;;;;;25.17;39.54;99800.31;4199118;28;20021;-67
2023/10/31 03:30:59;;;;;;;;;;;;;;;25.16;39.60;99812.09;4198622;28;20392;-67
2023/10/31 03:33:01;;;;;;;;;;;;;;;25.16;39.39;99819.31;4198897;28;19954;-66
2023/10/31 03:35:02;;;;;;;;;;;;;;;25.15;39.76;99817.66;4199001;28;19955;-67
2023/10/31 03:37:04;;;;;;;;;;;;;;;25.15;39.64;99823.03;4198928;28;19936;-66
2023/10/31 03:39:06;;;;;;;;;;;;;;;25.14;39.76;99815.97;4199017;28;20007;-66
2023/10/31 03:41:08;;;;;;;;;;;;;;;25.15;39.86;99820.34;4198569;28;20038;-66
2023/10/31 03:43:09;;;;;;;;;;;;;;;25.15;39.51;99831.09;4198743;28;19925;-66
2023/10/31 03:45:13;;;;;;;;;;;;;;;25.16;39.71;99822.84;4198280;28;19932;-67
2023/10/31 03:47:15;;;;;;;;;;;;;;;25.17;39.54;99821.00;4198605;28;19979;-67
2023/10/31 03:49:16;;;;;;;;;;;;;;;25.16;39.72;99828.22;4209598;28;20451;-67
2023/10/31 03:51:18;;;;;;;;;;;;;;;25.17;39.59;99815.63;4215329;28;19924;-67
2023/10/31 03:53:20;;;;;;;;;;;;;;;25.17;39.38;99821.00;4215368;28;19928;-66
2023/10/31 03:55:21;;;;;;;;;;;;;;;25.15;39.66;99823.88;4214667;28;19985;-66
2023/10/31 03:57:23;;;;;;;;;;;;;;;25.15;39.63;99823.03;4215206;28;19967;-66
2023/10/31 03:59:24;;;;;;;;;;;;;;;25.13;39.54;99819.66;4214744;28;20305;-66
2023/10/31 04:01:26;;;;;;;;;;;;;;;25.12;39.43;99823.38;4215332;28;20320;-67
2023/10/31 04:03:27;;;;;;;;;;;;;;;25.13;39.62;99828.59;4215094;28;19993;-67
2023/10/31 04:05:29;;;;;;;;;;;;;;;25.15;39.71;99829.25;4215049;28;20250;-67
2023/10/31 04:07:31;;;;;;;;;;;;;;;25.16;39.65;99839.00;4215026;28;19935;-67
2023/10/31 04:09:32;;;;;;;;;;;;;;;25.18;39.37;99838.84;4214872;28;19964;-66
2023/10/31 04:11:34;;;;;;;;;;;;;;;25.18;39.68;99844.22;4215134;28;19928;-66
2023/10/31 04:13:35;;;;;;;;;;;;;;;25.17;39.50;99851.44;4197152;28;19924;-66
2023/10/31 04:15:37;;;;;;;;;;;;;;;25.15;39.67;99850.78;4214683;28;19928;-66
2023/10/31 04:17:38;;;;;;;;;;;;;;;25.15;39.57;99852.63;4214593;28;19978;-67
2023/10/31 04:19:40;;;;;;;;;;;;;;;25.14;39.41;99854.50;4214913;28;19924;-66
2023/10/31 04:21:42;;;;;;;;;;;;;;;25.14;39.55;99848.25;4214918;28;19928;-66
2023/10/31 04:23:43;;;;;;;;;;;;;;;25.13;39.43;99849.25;4214793;28;19931;-65
2023/10/31 04:25:46;;;;;;;;;;;;;;;25.13;39.75;99860.03;4214838;28;20446;-66
2023/10/31 04:27:47;;;;;;;;;;;;;;;25.14;39.79;99856.31;4214881;28;20431;-66
2023/10/31 04:29:49;;;;;;;;;;;;;;;25.14;39.72;99854.50;4214500;28;19924;-66
2023/10/31 04:31:50;;;;;;;;;;;;;;;25.15;39.43;99863.38;4215053;28;19951;-66
2023/10/31 04:33:52;;;;;;;;;;;;;;;25.16;39.57;99865.91;4214677;28;19946;-66
2023/10/31 04:35:54;;;;;;;;;;;;;;;25.16;39.63;99865.06;4214704;28;20348;-66
2023/10/31 04:37:56;;;;;;;;;;;;;;;25.16;39.71;99862.38;4214624;28;19924;-67
2023/10/31 04:39:58;;;;;;;;;;;;;;;25.16;39.25;99878.53;4214361;28;20351;-66
2023/10/31 04:41:59;;;;;;;;;;;;;;;25.15;39.32;99877.69;4214711;28;20335;-66
2023/10/31 04:44:01;;;;;;;;;;;;;;;25.14;39.56;99875.16;4214186;28;20005;-67
2023/10/31 04:46:02;;;;;;;;;;;;;;;25.14;39.72;99877.84;4214309;28;20023;-66
2023/10/31 04:48:04;;;;;;;;;;;;;;;25.13;39.54;99879.72;4214288;28;20385;-66
2023/10/31 04:50:06;;;;;;;;;;;;;;;25.14;39.75;99880.53;4214503;28;19923;-66
2023/10/31 04:52:08;;;;;;;;;;;;;;;25.13;39.56;99878.84;4214294;28;19924;-66
2023/10/31 04:54:09;;;;;;;;;;;;;;;25.13;39.60;99873.47;4214431;28;20389;-66
2023/10/31 04:56:14;;;;;;;;;;;;;;;25.14;39.66;99873.31;4214570;28;19976;-66
2023/10/31 04:58:16;;;;;;;;;;;;;;;25.14;39.44;99872.47;4212874;28;19929;-66
2023/10/31 05:00:18;;;;;;;;;;;;;;;25.16;39.71;99881.22;4214207;28;19923;-66
2023/10/31 05:02:22;;;;;;;;;;;;;;;25.17;39.68;99877.53;4214248;28;19924;-66
2023/10/31 05:04:24;;;;;;;;;;;;;;;25.16;39.65;99886.59;4214411;28;19970;-67
2023/10/31 05:06:26;;;;;;;;;;;;;;;25.14;39.63;99883.22;4213486;28;19924;-65
2023/10/31 05:08:28;;;;;;;;;;;;;;;25.13;39.43;99886.94;4214334;28;19932;-66
2023/10/31 05:10:30;;;;;;;;;;;;;;;25.12;39.45;99883.41;4214099;28;19950;-66
2023/10/31 05:12:31;;;;;;;;;;;;;;;25.11;39.59;99886.28;4213902;28;19928;-65
2023/10/31 05:14:33;;;;;;;;;;;;;;;25.11;39.64;99884.41;4214147;28;19932;-66
2023/10/31 05:16:44;;;;;;;;;;;;;;;25.12;39.64;99888.78;4214110;28;19943;-66
2023/10/31 05:18:45;;;;;;;;;;;;;;;25.14;39.74;99885.91;4213889;28;19924;-66
2023/10/31 05:20:47;;;;;;;;;;;;;;;25.15;39.54;99887.59;4213874;28;19924;-67
2023/10/31 05:22:48;;;;;;;;;;;;;;;25.15;39.75;99885.78;4213863;28;19981;-67
2023/10/31 05:24:51;;;;;;;;;;;;;;;25.15;39.57;99887.59;4213943;28;19991;-66
2023/10/31 05:26:52;;;;;;;;;;;;;;;25.15;39.74;99884.91;4213644;28;19971;-67
2023/10/31 05:28:54;;;;;;;;;;;;;;;25.15;39.79;99895.69;4213957;28;19974;-67
2023/10/31 05:30:55;;;;;;;;;;;;;;;25.15;39.48;99901.06;4213879;28;19924;-67
2023/10/31 05:32:57;;;;;;;;;;;;;;;25.12;39.81;99899.56;4213851;28;20027;-66
2023/10/31 05:34:59;;;;;;;;;;;;;;;25.13;39.88;99892.31;4213584;28;20011;-66
2023/10/31 05:37:01;;;;;;;;;;;;;;;25.14;39.78;99902.91;4213675;28;20317;-66
2023/10/31 05:39:02;;;;;;;;;;;;;;;25.15;39.62;99898.38;4195997;28;19924;-67
2023/10/31 05:41:07;;;;;;;;;;;;;;;25.15;39.69;99907.28;4195453;28;20412;-66
2023/10/31 05:43:09;;;;;;;;;;;;;;;25.16;39.66;99902.75;4213730;28;19924;-67
2023/10/31 05:45:10;;;;;;;;;;;;;;;25.17;39.67;99907.13;4213776;28;19924;-67
2023/10/31 05:47:12;;;;;;;;;;;;;;;25.16;39.77;99900.06;4213593;28;19932;-66
2023/10/31 05:49:14;;;;;;;;;;;;;;;25.15;39.57;99903.75;4213511;28;19924;-66
2023/10/31 05:51:17;;;;;;;;;;;;;;;25.14;39.39;99904.75;4213488;28;19924;-66
2023/10/31 05:53:19;;;;;;;;;;;;;;;25.13;39.52;99906.63;4213573;28;19954;-67
2023/10/31 05:55:20;;;;;;;;;;;;;;;25.14;39.82;99904.75;4213326;28;19924;-66
2023/10/31 05:57:22;;;;;;;;;;;;;;;25.12;39.81;99912.19;4213862;28;19928;-66
2023/10/31 05:59:23;;;;;;;;;;;;;;;25.13;39.74;99913.81;4213512;28;19938;-66
2023/10/31 06:01:25;;;;;;;;;;;;;;;25.13;39.68;99914.69;4213520;28;19931;-66
2023/10/31 06:03:26;;;;;;;;;;;;;;;25.15;39.57;99910.00;4213724;28;19924;-67
2023/10/31 06:05:28;;;;;;;;;;;;;;;25.16;39.87;99908.94;4213530;28;20016;-67
2023/10/31 06:07:30;;;;;;;;;;;;;;;25.17;39.52;99910.63;4213474;28;20371;-66
2023/10/31 06:09:33;;;;;;;;;;;;;;;25.16;39.69;99902.75;4195555;28;19932;-66
2023/10/31 06:11:34;;;;;;;;;;;;;;;25.15;39.71;99909.13;4213102;28;19982;-67
2023/10/31 06:13:36;;;;;;;;;;;;;;;25.14;39.78;99905.63;4213556;28;19924;-67
2023/10/31 06:15:37;;;;;;;;;;;;;;;25.14;39.75;99905.63;4213609;28;19924;-67
2023/10/31 06:17:39;;;;;;;;;;;;;;;25.13;39.63;99916.53;4213782;28;19949;-67
2023/10/31 06:19:45;;;;;;;;;;;;;;;25.12;39.81;99915.69;4216783;28;19924;-67
2023/10/31 06:21:46;;;;;;;;;;;;;;;25.13;39.60;99911.13;4198760;28;20366;-67
2023/10/31 06:23:48;;;;;;;;;;;;;;;25.12;39.80;99914.88;4216674;28;19963;-66
2023/10/31 06:25:50;;;;;;;;;;;;;;;25.12;39.46;99917.56;4216301;28;19928;-66
2023/10/31 06:27:51;;;;;;;;;;;;;;;25.14;39.88;99926.28;4216419;28;19928;-67
2023/10/31 06:29:55;;;;;;;;;;;;;;;25.16;39.66;99926.97;4216793;28;19924;-67
2023/10/31 06:32:16;;;;;;;;;;;;;;;25.16;39.54;99926.97;4216750;28;20423;-67
2023/10/31 06:34:19;;;;;;;;;;;;;;;25.17;39.65;99929.47;4216490;28;19924;-67
2023/10/31 06:36:20;;;;;;;;;;;;;;;25.17;39.59;99920.56;4216546;28;19931;-67
2023/10/31 06:38:22;;;;;;;;;;;;;;;25.16;39.59;99929.66;4216317;28;20427;-67
2023/10/31 06:40:24;;;;;;;;;;;;;;;25.15;39.96;99930.66;4216116;28;20086;-67
2023/10/31 06:42:26;;;;;;;;;;;;;;;25.16;39.54;99937.72;4216590;28;19947;-66
2023/10/31 06:44:28;;;;;;;;;;;;;;;25.15;39.86;99942.28;4216305;28;19977;-66
2023/10/31 06:46:29;;;;;;;;;;;;;;;25.17;39.68;99945.63;4216211;28;20282;-67
2023/10/31 06:48:31;;;;;;;;;;;;;;;25.16;39.66;99943.09;4216234;28;19924;-67
2023/10/31 06:50:32;;;;;;;;;;;;;;;25.17;39.84;99944.78;4216306;28;19932;-66
2023/10/31 06:52:34;;;;;;;;;;;;;;;25.18;39.97;99941.09;4216171;28;20300;-66
2023/10/31 06:54:37;;;;;;;;;;;;;;;25.18;39.86;99944.63;4215217;28;20378;-66
2023/10/31 06:56:39;;;;;;;;;;;;;;;25.19;39.81;99940.91;4216154;28;19931;-66
2023/10/31 06:58:41;;;;;;;;;;;;;;;25.19;39.80;99937.41;4216253;28;19938;-67
2023/10/31 07:00:42;;;;;;;;;;;;;;;25.16;39.87;99938.56;4215967;28;19989;-66
2023/10/31 07:02:44;;;;;;;;;;;;;;;25.17;39.85;99939.41;4216129;28;19977;-66
2023/10/31 07:04:45;;;;;;;;;;;;;;;25.16;39.84;99938.56;4216005;28;19924;-66
2023/10/31 07:06:47;;;;;;;;;;;;;;;25.16;39.78;99943.09;4215719;28;20187;-66
2023/10/31 07:08:48;;;;;;;;;;;;;;;25.16;39.99;99946.63;4215552;28;19944;-67
2023/10/31 07:10:50;;;;;;;;;;;;;;;25.18;39.74;99954.53;4215981;28;19931;-67
2023/10/31 07:12:52;;;;;;;;;;;;;;;25.17;39.68;99959.06;4215963;28;20343;-66
2023/10/31 07:14:53;;;;;;;;;;;;;;;25.19;39.63;99956.25;4215612;28;19924;-66
2023/10/31 07:16:56;;;;;;;;;;;;;;;25.19;39.97;99961.63;4215727;28;20291;-67
2023/10/31 07:18:57;;;;;;;;;;;;;;;25.20;39.63;99968.66;4215755;28;20350;-66
2023/10/31 07:20:59;;;;;;;;;;;;;;;25.19;39.55;99969.69;4215807;28;19950;-67
2023/10/31 07:23:00;;;;;;;;;;;;;;;25.18;39.64;99973.38;4215457;28;19924;-66
2023/10/31 07:25:03;;;;;;;;;;;;;;;25.17;39.55;99969.00;4215755;28;19924;-66
2023/10/31 07:27:04;;;;;;;;;;;;;;;25.17;39.77;99969.00;4215616;28;19934;-66
2023/10/31 07:29:06;;;;;;;;;;;;;;;25.17;39.75;99979.78;4215119;28;19925;-66
2023/10/31 07:31:08;;;;;;;;;;;;;;;25.17;39.83;99979.78;4214988;28;20316;-66
2023/10/31 07:33:09;;;;;;;;;;;;;;;25.17;40.03;99974.38;4215431;28;19924;-66
2023/10/31 07:35:11;;;;;;;;;;;;;;;25.17;39.55;99979.78;4215597;28;19924;-66
2023/10/31 07:37:12;;;;;;;;;;;;;;;25.19;39.54;99977.75;4215279;28;19974;-66
2023/10/31 07:39:14;;;;;;;;;;;;;;;25.19;39.49;99978.59;4215479;28;19930;-66
2023/10/31 07:41:15;;;;;;;;;;;;;;;25.19;39.59;99986.66;4215244;28;19924;-65
2023/10/31 07:43:17;;;;;;;;;;;;;;;25.20;39.91;99987.50;4215533;28;19924;-66
2023/10/31 07:45:19;;;;;;;;;;;;;;;25.18;39.58;99987.66;4215371;28;19924;-65
2023/10/31 07:47:20;;;;;;;;;;;;;;;25.17;39.62;99987.84;4215439;28;19931;-66
2023/10/31 07:49:22;;;;;;;;;;;;;;;25.16;39.75;99999.63;4215119;28;19971;-66
2023/10/31 07:51:24;;;;;;;;;;;;;;;25.15;39.80;99996.09;4215057;28;19924;-66
2023/10/31 07:53:26;;;;;;;;;;;;;;;25.18;39.66;99994.91;4215385;28;20376;-66
2023/10/31 07:55:27;;;;;;;;;;;;;;;25.19;39.76;99999.28;4215370;28;20450;-66
2023/10/31 07:57:29;;;;;;;;;;;;;;;25.19;39.90;100002.81;4214960;28;19951;-66
2023/10/31 07:59:33;;;;;;;;;;;;;;;25.21;39.85;99994.56;4215068;28;20003;-66
2023/10/31 08:01:35;;;;;;;;;;;;;;;25.21;39.75;100002.63;4215258;28;20075;-68
2023/10/31 08:03:37;;;;;;;;;;;;;;;25.21;39.78;100002.63;4215151;28;19924;-66
2023/10/31 08:05:39;;;;;;;;;;;;;;;25.20;39.64;100007.19;4215187;28;20049;-66
2023/10/31 08:07:41;;;;;;;;;;;;;;;25.19;39.73;100010.06;4214813;28;19959;-67
2023/10/31 08:09:42;;;;;;;;;;;;;;;25.16;39.78;100005.81;4215088;28;19931;-67
2023/10/31 08:11:44;;;;;;;;;;;;;;;25.15;39.85;100006.84;4214974;28;20016;-67
2023/10/31 08:13:46;;;;;;;;;;;;;;;25.16;39.66;100011.19;4214997;28;19982;-66
2023/10/31 08:15:47;;;;;;;;;;;;;;;25.18;39.82;100016.44;4215051;28;19966;-67
2023/10/31 08:17:49;;;;;;;;;;;;;;;25.18;39.78;100022.66;4214721;28;20465;-67
2023/10/31 08:19:50;;;;;;;;;;;;;;;25.20;39.61;100028.72;4214709;28;19924;-66
2023/10/31 08:21:53;;;;;;;;;;;;;;;25.22;39.87;100028.53;4214393;28;19932;-66
2023/10/31 08:23:58;;;;;;;;;;;;;;;25.22;39.76;100033.91;4215145;28;19938;-67
2023/10/31 08:25:59;;;;;;;;;;;;;;;25.24;39.80;100041.81;4214564;28;19924;-67
2023/10/31 08:28:01;;;;;;;;;;;;;;;25.22;39.53;100039.31;4214634;28;19989;-66
2023/10/31 08:30:02;;;;;;;;;;;;;;;25.22;39.65;100041.16;4214748;28;19928;-66
2023/10/31 08:32:05;;;;;;;;;;;;;;;25.20;39.48;100042.16;4214703;28;19931;-67
2023/10/31 08:34:06;;;;;;;;;;;;;;;25.19;39.66;100050.41;4214445;28;19955;-66
2023/10/31 08:36:08;;;;;;;;;;;;;;;25.20;39.60;100049.38;4214439;28;19960;-66
2023/10/31 08:38:10;;;;;;;;;;;;;;;25.19;39.96;100056.63;4214579;28;19983;-66
2023/10/31 08:40:25;;;;;;;;;;;;;;;25.20;39.89;100052.06;4214672;28;19931;-66
2023/10/31 08:42:26;;;;;;;;;;;;;;;25.22;39.45;100058.13;4214282;28;19924;-67
2023/10/31 08:44:28;;;;;;;;;;;;;;;25.23;39.54;100062.53;4214516;28;20393;-66
2023/10/31 08:46:29;;;;;;;;;;;;;;;25.24;39.54;100071.41;4214528;28;20010;-67
2023/10/31 08:48:31;;;;;;;;;;;;;;;25.25;39.47;100070.41;4214088;28;19935;-66
2023/10/31 08:50:32;;;;;;;;;;;;;;;25.25;39.51;100070.41;4213852;28;19934;-67
2023/10/31 08:52:34;;;;;;;;;;;;;;;25.23;39.51;100065.22;4214306;28;19955;-66
2023/10/31 08:54:36;;;;;;;;;;;;;;;25.24;39.72;100060.66;4214279;28;20308;-66
2023/10/31 08:56:37;;;;;;;;;;;;;;;25.22;39.59;100071.59;4214234;28;19959;-67
2023/10/31 08:58:40;;;;;;;;;;;;;;;25.22;39.85;100070.78;4214410;28;19948;-66
2023/10/31 09:00:41;;;;;;;;;;;;;;;25.23;39.71;100072.47;4214473;28;20385;-66
2023/10/31 09:02:43;;;;;;;;;;;;;;;25.23;39.44;100078.66;4214165;28;19928;-66
2023/10/31 09:04:44;;;;;;;;;;;;;;;25.25;39.76;100082.03;4213818;28;19928;-67
2023/10/31 09:06:46;;;;;;;;;;;;;;;25.25;39.71;100089.25;4214070;28;19978;-66
2023/10/31 09:08:48;;;;;;;;;;;;;;;25.25;39.70;100090.13;4214059;28;19924;-67
2023/10/31 09:10:49;;;;;;;;;;;;;;;25.24;39.73;100093.81;4214145;28;19931;-67
2023/10/31 09:12:51;;;;;;;;;;;;;;;25.23;39.53;100097.50;4214130;28;19924;-67
2023/10/31 09:14:52;;;;;;;;;;;;;;;25.22;39.66;100090.44;4214599;28;20136;-67
2023/10/31 09:16:54;;;;;;;;;;;;;;;25.21;39.71;100102.19;4214046;28;20030;-68
2023/10/31 09:18:55;;;;;;;;;;;;;;;25.20;39.48;100106.75;4213559;28;19924;-68
2023/10/31 09:20:57;;;;;;;;;;;;;;;25.18;39.86;100108.75;4214289;28;20408;-67
2023/10/31 09:22:59;;;;;;;;;;;;;;;25.19;40.02;100113.13;4214059;28;20457;-67
2023/10/31 09:25:02;;;;;;;;;;;;;;;25.21;39.93;100112.97;4213954;28;19931;-67
2023/10/31 09:27:04;;;;;;;;;;;;;;;25.23;39.77;100119.03;4213697;28;19935;-67
2023/10/31 09:29:05;;;;;;;;;;;;;;;25.24;39.51;100120.72;4213899;28;19931;-67
2023/10/31 09:31:10;;;;;;;;;;;;;;;25.25;39.73;100127.78;4213725;28;19963;-67
2023/10/31 09:33:12;;;;;;;;;;;;;;;25.25;39.68;100126.94;4213599;28;19928;-67
2023/10/31 09:35:14;;;;;;;;;;;;;;;25.26;39.80;100125.94;4213615;28;20026;-66
2023/10/31 09:37:15;;;;;;;;;;;;;;;25.25;39.47;100126.94;4213588;28;19924;-66
2023/10/31 09:39:17;;;;;;;;;;;;;;;25.25;39.50;100119.72;4213702;28;20004;-67
2023/10/31 09:41:19;;;;;;;;;;;;;;;25.23;39.76;100131.66;4213885;28;20032;-71
2023/10/31 09:43:20;;;;;;;;;;;;;;;25.21;39.73;100129.13;4213686;28;20377;-68
2023/10/31 09:45:22;;;;;;;;;;;;;;;25.23;39.83;100128.97;4213842;28;20019;-67
2023/10/31 09:47:24;;;;;;;;;;;;;;;25.25;39.39;100133.19;4213388;28;20323;-67
2023/10/31 09:49:26;;;;;;;;;;;;;;;25.29;39.57;100139.06;4213903;28;20270;-67
2023/10/31 09:51:28;;;;;;;;;;;;;;;25.30;39.67;100141.59;4213476;28;19931;-67
2023/10/31 09:53:31;;;;;;;;;;;;;;;25.32;39.65;100138.72;4212912;28;19978;-67
2023/10/31 09:55:33;;;;;;;;;;;;;;;25.34;39.67;100144.78;4213819;28;19929;-65
2023/10/31 09:57:35;;;;;;;;;;;;;;;25.34;39.36;100145.63;4213681;28;19924;-66
2023/10/31 09:59:36;;;;;;;;;;;;;;;25.31;39.22;100151.34;4213313;28;19993;-67
2023/10/31 10:01:38;;;;;;;;;;;;;;;25.30;39.29;100157.75;4213549;28;19931;-64
2023/10/31 10:03:40;;;;;;;;;;;;;;;25.30;39.16;100165.81;4213177;28;19979;-65
2023/10/31 10:05:43;;;;;;;;;;;;;;;25.29;38.64;100163.28;4213353;28;19924;-65
2023/10/31 10:07:45;;;;;;;;;;;;;;;25.28;39.02;100167.81;4213515;28;20027;-65
2023/10/31 10:09:47;;;;;;;;;;;;;;;25.28;38.58;100167.81;4213630;28;20035;-64
2023/10/31 10:11:48;;;;;;;;;;;;;;;25.30;38.71;100163.13;4213487;28;20034;-64
2023/10/31 10:13:51;;;;;;;;;;;;;;;25.33;38.27;100164.63;4213313;28;20087;-64
2023/10/31 10:15:53;;;;;;;;;;;;;;;25.34;38.28;100172.53;4213336;28;19928;-64
2023/10/31 10:17:55;;;;;;;;;;;;;;;25.35;38.24;100170.72;4212820;28;19924;-64
2023/10/31 10:20:09;;;;;;;;;;;;;;;25.24;38.08;100153.03;4213307;28;19924;-66
2023/10/31 10:22:11;;;;;;;;;;;;;;;25.31;38.13;100172.88;4213287;28;19966;-65
2023/10/31 10:24:13;;;;;;;;;;;;;;;25.28;37.73;100164.31;4213399;28;19925;-65
2023/10/31 10:26:14;;;;;;;;;;;;;;;25.27;37.89;100170.69;4213473;28;19928;-65
2023/10/31 10:28:16;;;;;;;;;;;;;;;25.25;38.05;100165.47;4213348;28;20342;-65
2023/10/31 10:30:18;;;;;;;;;;;;;;;25.24;38.10;100166.47;4195451;28;19924;-66
2023/10/31 10:32:22;;;;;;;;;;;;;;;25.26;37.73;100161.75;4213051;28;19928;-65
2023/10/31 10:34:24;;;;;;;;;;;;;;;25.28;37.91;100164.31;4213411;28;19926;-66